Abel Santa Maria Airport

Airport
ICAO code: 
MUSC
IATA Code: 
SNU
Summary
ICAO Region: 
CARSAM
Territory: 
Location: 
Santa Clara, Villa Clara
Serving: 
Santa Clara
Elevation: 
338 ft
Coordinates: 
Aerial View: 
22° 29' 26.316" N, 79° 56' 40.014" W
Airport BS: 
Bird Strike
Metar
Observation
MUSC 031450Z 08009KT 9000 SCT020 25/20 Q1019
Station
SANTA CLARA
Date/Time
2021-12-03 14:50:00
Wind direction
80°
Wind speed
09 kts
Lowest cloud amount
scattered clouds
Temperature
25°C
Dew point
20°C
Humidity
73%
QNH
1019 hPa
Weather condition
n/a

International airport serving Santa Clara, Cuba.

Climatology

Tropical Savanna climate (Köppen climate classification Aw)

Runways

Designator Length Width Surface Rops
8/26 3017 45 ASP Yes/Yes
Airport map: 
Aerial View: 

SKYbrary Partners:

Safety knowledge contributed by: